Time;durP1;ratioP1;P1;durP2;ratioP2;P2;SDS_P1;SDS_P2;PMS_P1;PMS_P2;Temp;Humidity;BMP_temperature;BMP_pressure;BME280_temperature;BME280_humidity;BME280_pressure;Samples;Min_cycle;Max_cycle;Signal;HPM_P1;HPM_P2
2022/09/17 00:00:37;;;;;;;8.63;4.85;;;;;;;17.92;100.00;93673.16;4996008;28;20221;-62
2022/09/17 00:03:03;;;;;;;11.65;5.65;;;;;;;17.71;100.00;93683.66;4995604;28;20205;-62
2022/09/17 00:05:29;;;;;;;8.55;5.05;;;;;;;17.74;100.00;93656.75;5013327;28;20213;-64
2022/09/17 00:07:55;;;;;;;9.82;4.88;;;;;;;17.98;100.00;93676.72;5013113;28;20199;-60
2022/09/17 00:10:22;;;;;;;9.63;5.50;;;;;;;17.65;100.00;93670.78;5012235;28;20203;-60
2022/09/17 00:12:48;;;;;;;8.00;5.57;;;;;;;17.61;100.00;93653.16;5012394;28;20588;-63
2022/09/17 00:15:14;;;;;;;12.65;5.72;;;;;;;17.71;100.00;93670.00;4993994;28;20862;-60
2022/09/17 00:17:41;;;;;;;8.63;4.78;;;;;;;17.81;100.00;93640.34;5012343;28;20297;-63
2022/09/17 00:20:11;;;;;;;10.15;5.13;;;;;;;18.04;100.00;93653.56;4995482;28;20294;-63
2022/09/17 00:22:37;;;;;;;10.88;5.78;;;;;;;17.96;100.00;93647.84;4995977;28;20616;-61
2022/09/17 00:25:05;;;;;;;11.52;5.18;;;;;;;18.12;100.00;93648.22;5013458;28;20223;-61
2022/09/17 00:27:30;;;;;;;10.95;6.00;;;;;;;18.18;100.00;93644.84;5013297;28;20190;-60
2022/09/17 00:29:56;;;;;;;10.00;4.25;;;;;;;18.04;100.00;93634.78;5013614;28;20207;-64
2022/09/17 00:32:29;;;;;;;12.80;5.60;;;;;;;18.03;100.00;93622.91;5013428;28;20187;-63
2022/09/17 00:34:55;;;;;;;7.10;4.50;;;;;;;18.19;100.00;93633.56;4995551;28;20225;-64
2022/09/17 00:37:20;;;;;;;8.55;4.85;;;;;;;18.05;100.00;93647.44;4995470;28;20218;-62
2022/09/17 00:39:46;;;;;;;9.48;4.53;;;;;;;17.82;100.00;93644.47;5013296;28;20214;-62
2022/09/17 00:42:13;;;;;;;10.80;5.20;;;;;;;18.13;100.00;93654.16;5013303;28;20183;-61
2022/09/17 00:44:41;;;;;;;9.68;5.53;;;;;;;18.13;100.00;93665.25;5013174;28;20222;-61
2022/09/17 00:47:21;;;;;;;10.25;5.25;;;;;;;18.11;100.00;93644.09;4995250;28;20210;-63
2022/09/17 00:49:50;;;;;;;14.77;5.95;;;;;;;17.91;100.00;93648.44;5012689;28;20221;-62
2022/09/17 00:52:21;;;;;;;8.80;4.90;;;;;;;18.06;100.00;93669.59;4995717;28;20194;-62
2022/09/17 00:54:55;;;;;;;9.18;5.45;;;;;;;17.98;100.00;93651.78;4995444;28;20231;-63
2022/09/17 00:57:20;;;;;;;13.45;5.22;;;;;;;17.98;100.00;93656.94;4995287;28;20711;-62
2022/09/17 00:59:46;;;;;;;8.93;5.22;;;;;;;17.97;100.00;93660.50;5012729;28;20631;-64
2022/09/17 01:02:12;;;;;;;10.35;4.95;;;;;;;18.10;100.00;93682.88;5012925;28;20199;-63
2022/09/17 01:04:37;;;;;;;10.07;5.40;;;;;;;17.94;100.00;93660.09;4995175;28;20322;-63
2022/09/17 01:07:54;;;;;;;7.03;4.57;;;;;;;18.11;100.00;93689.59;5012689;28;20183;-62
2022/09/17 01:10:34;;;;;;;8.48;5.18;;;;;;;17.67;100.00;93671.38;4963017;28;20227;-62
2022/09/17 01:13:18;;;;;;;10.45;5.38;;;;;;;17.67;100.00;93655.97;5012913;28;20225;-63
2022/09/17 01:16:04;;;;;;;8.25;4.88;;;;;;;18.01;100.00;93653.19;5012760;28;20186;-60
2022/09/17 01:18:46;;;;;;;9.80;5.00;;;;;;;17.72;100.00;93641.50;5011882;28;20211;-62
2022/09/17 01:21:41;;;;;;;11.32;5.82;;;;;;;17.87;100.00;93624.13;4994987;28;20273;-61
2022/09/17 01:24:19;;;;;;;9.95;5.68;;;;;;;17.62;100.00;93643.69;4994954;28;20268;-62
2022/09/17 01:27:15;;;;;;;9.25;5.10;;;;;;;17.63;100.00;93635.00;5012342;28;20183;-61
2022/09/17 01:30:13;;;;;;;11.55;5.45;;;;;;;17.45;100.00;93658.66;5012518;28;20669;-61
2022/09/17 01:32:51;;;;;;;9.77;5.70;;;;;;;17.61;100.00;93650.59;5012413;28;20701;-62
2022/09/17 01:35:27;;;;;;;12.07;5.63;;;;;;;17.63;100.00;93642.72;5012301;28;20207;-60
2022/09/17 01:38:11;;;;;;;8.90;5.25;;;;;;;17.44;100.00;93657.09;5012106;28;20215;-61
2022/09/17 01:40:40;;;;;;;8.73;5.43;;;;;;;17.63;100.00;93652.19;5012128;28;20739;-61
2022/09/17 01:43:41;;;;;;;12.48;5.88;;;;;;;17.59;100.00;93659.53;5011954;28;20183;-62
2022/09/17 01:46:13;;;;;;;7.95;4.97;;;;;;;17.79;100.00;93636.38;4998610;28;20209;-61
2022/09/17 01:48:44;;;;;;;8.10;4.93;;;;;;;17.63;100.00;93636.78;5012192;28;20214;-61
2022/09/17 01:51:17;;;;;;;7.38;5.32;;;;;;;17.77;100.00;93612.66;4994527;28;20669;-62
2022/09/17 01:53:47;;;;;;;6.68;4.95;;;;;;;17.75;100.00;93619.78;4994489;28;20210;-63
2022/09/17 01:56:17;;;;;;;8.82;5.00;;;;;;;17.66;100.00;93584.97;4994098;28;20198;-61
2022/09/17 01:59:17;;;;;;;7.35;4.70;;;;;;;17.76;100.00;93595.63;4994149;28;20214;-61
2022/09/17 02:01:47;;;;;;;7.13;4.97;;;;;;;17.54;100.00;93598.41;5011843;28;20186;-61
2022/09/17 02:04:19;;;;;;;11.90;5.50;;;;;;;17.43;100.00;93623.91;5012129;28;20281;-61
2022/09/17 02:06:52;;;;;;;12.23;5.07;;;;;;;17.66;100.00;93620.94;5011906;28;20726;-63
2022/09/17 02:09:23;;;;;;;7.82;4.78;;;;;;;17.50;100.00;93622.94;5012068;28;20230;-61
2022/09/17 02:11:55;;;;;;;9.32;4.78;;;;;;;17.74;100.00;93595.03;5011796;28;20297;-60
2022/09/17 02:14:27;;;;;;;8.13;4.85;;;;;;;17.56;100.00;93586.16;5011891;28;20744;-63
2022/09/17 02:17:00;;;;;;;8.13;4.63;;;;;;;17.74;100.00;93589.91;4993822;28;20230;-64
2022/09/17 02:19:34;;;;;;;9.30;5.00;;;;;;;17.58;100.00;93579.03;5011665;28;20317;-63
2022/09/17 02:22:17;;;;;;;7.55;4.70;;;;;;;17.71;100.00;93523.47;5011455;28;20594;-62
2022/09/17 02:25:15;;;;;;;8.18;4.28;;;;;;;17.41;100.00;93515.38;5011650;28;20206;-62
2022/09/17 02:27:59;;;;;;;9.13;4.55;;;;;;;17.37;100.00;93539.91;4968205;28;20280;-61
2022/09/17 02:30:24;;;;;;;5.65;4.18;;;;;;;17.35;100.00;93467.38;5011377;28;20219;-61
2022/09/17 02:32:50;;;;;;;4.78;3.05;;;;;;;17.44;100.00;93479.00;5011679;28;20187;-62
2022/09/17 02:35:16;;;;;;;7.25;4.18;;;;;;;17.42;100.00;93492.06;5011665;28;20345;-62
2022/09/17 02:37:42;;;;;;;6.15;3.85;;;;;;;17.54;100.00;93446.78;4993642;28;20203;-60
2022/09/17 02:40:11;;;;;;;10.40;4.25;;;;;;;17.45;100.00;93507.06;5011580;28;20214;-61
2022/09/17 02:43:05;;;;;;;8.02;4.15;;;;;;;17.39;100.00;93514.78;5011424;28;20211;-60
2022/09/17 02:45:55;;;;;;;8.02;4.05;;;;;;;17.42;100.00;93507.47;4976093;28;20236;-61
2022/09/17 02:48:39;;;;;;;5.32;3.42;;;;;;;17.59;100.00;93525.88;4993743;28;20199;-61
2022/09/17 02:51:43;;;;;;;4.90;3.53;;;;;;;17.49;100.00;93508.28;5011214;28;20186;-61
2022/09/17 02:54:11;;;;;;;6.47;3.35;;;;;;;17.63;100.00;93550.19;5003388;22;20561;-61
2022/09/17 02:56:36;;;;;;;5.90;3.30;;;;;;;17.58;100.00;93532.00;5009756;28;20219;-61
2022/09/17 02:59:18;;;;;;;5.88;3.90;;;;;;;17.60;100.00;93542.84;5011104;28;20214;-62
2022/09/17 03:01:54;;;;;;;5.80;3.10;;;;;;;17.56;100.00;93524.47;5011016;28;20266;-60
2022/09/17 03:04:23;;;;;;;8.25;3.30;;;;;;;17.79;100.00;93524.06;5011389;28;20211;-61
2022/09/17 03:06:51;;;;;;;6.57;2.95;;;;;;;17.92;100.00;93520.66;5010813;28;20190;-61
2022/09/17 03:09:17;;;;;;;5.57;3.00;;;;;;;17.51;100.00;93497.81;5011025;28;20222;-61
2022/09/17 03:11:42;;;;;;;6.38;3.80;;;;;;;17.42;100.00;93493.81;5012335;28;20179;-61
2022/09/17 03:14:08;;;;;;;5.40;3.03;;;;;;;17.60;100.00;93494.81;5014472;28;20203;-63
2022/09/17 03:16:33;;;;;;;7.32;3.22;;;;;;;17.67;100.00;93505.09;5013037;28;20226;-62
2022/09/17 03:18:59;;;;;;;11.15;8.38;;;;;;;17.49;100.00;93489.50;5013162;28;20692;-63
2022/09/17 03:21:25;;;;;;;7.53;3.35;;;;;;;17.75;100.00;93504.88;5012846;28;20202;-61
2022/09/17 03:23:50;;;;;;;12.40;5.93;;;;;;;17.60;100.00;93505.09;5014075;28;20602;-62
2022/09/17 03:26:16;;;;;;;7.38;3.17;;;;;;;17.65;100.00;93491.66;5013986;28;20187;-62
2022/09/17 03:28:42;;;;;;;6.72;4.07;;;;;;;17.70;100.00;93507.25;5012460;28;20214;-64
2022/09/17 03:31:09;;;;;;;6.88;3.72;;;;;;;17.94;100.00;93506.59;5012905;28;20728;-63
2022/09/17 03:33:34;;;;;;;6.78;3.20;;;;;;;17.98;100.00;93500.06;5012886;28;20215;-64
2022/09/17 03:36:00;;;;;;;14.43;6.88;;;;;;;17.77;100.00;93495.19;5012749;28;20257;-61
2022/09/17 03:38:25;;;;;;;12.38;4.45;;;;;;;17.88;100.00;93491.97;5013884;28;20210;-62
2022/09/17 03:41:02;;;;;;;9.60;3.10;;;;;;;17.98;100.00;93500.06;5014031;28;20514;-61
2022/09/17 03:43:28;;;;;;;7.57;3.20;;;;;;;17.46;100.00;93467.53;5013680;28;20225;-64
2022/09/17 03:45:54;;;;;;;5.72;3.38;;;;;;;17.71;100.00;93485.72;5013941;28;20218;-62
2022/09/17 03:48:20;;;;;;;8.23;3.15;;;;;;;17.63;100.00;93467.94;5012392;28;20187;-61
2022/09/17 03:50:46;;;;;;;6.95;3.53;;;;;;;17.66;100.00;93459.81;5013669;28;20191;-61
2022/09/17 03:53:11;;;;;;;9.10;3.58;;;;;;;17.39;100.00;93461.59;5013807;28;20221;-61
2022/09/17 03:55:38;;;;;;;6.40;3.70;;;;;;;17.37;100.00;93443.03;5013614;28;20214;-63
2022/09/17 03:58:04;;;;;;;10.10;3.72;;;;;;;17.63;100.00;93462.78;5013330;28;20211;-63
2022/09/17 04:00:37;;;;;;;7.95;3.60;;;;;;;17.56;100.00;93473.09;5013491;28;20269;-61
2022/09/17 04:03:04;;;;;;;7.55;4.53;;;;;;;17.51;100.00;93474.69;5013550;28;20203;-62
2022/09/17 04:05:29;;;;;;;6.65;3.33;;;;;;;17.81;100.00;93493.00;5013674;28;20210;-60
2022/09/17 04:07:54;;;;;;;8.10;4.10;;;;;;;17.60;100.00;93492.25;5013474;28;20225;-60
2022/09/17 04:10:20;;;;;;;5.70;3.38;;;;;;;17.72;100.00;93482.13;5013366;28;20592;-64
2022/09/17 04:12:45;;;;;;;5.60;3.30;;;;;;;18.02;100.00;93508.94;5013330;28;21041;-62
2022/09/17 04:15:11;;;;;;;14.00;8.18;;;;;;;17.93;100.00;93506.81;5013485;28;20217;-65
2022/09/17 04:17:36;;;;;;;8.65;4.07;;;;;;;17.81;100.00;93506.66;5013297;28;20268;-61
2022/09/17 04:20:04;;;;;;;7.20;3.28;;;;;;;17.95;100.00;93503.06;5011898;28;20209;-61
2022/09/17 04:22:30;;;;;;;4.60;3.50;;;;;;;18.03;100.00;93536.25;5011933;28;20191;-60
2022/09/17 04:24:55;;;;;;;6.43;3.20;;;;;;;17.94;100.00;93552.88;5012782;28;20210;-62
2022/09/17 04:27:20;;;;;;;6.90;3.72;;;;;;;17.93;100.00;93578.81;5013335;28;20191;-61
2022/09/17 04:29:46;;;;;;;9.02;4.88;;;;;;;17.86;100.00;93571.09;5013243;28;20644;-62
2022/09/17 04:32:11;;;;;;;9.27;4.55;;;;;;;17.90;100.00;93580.00;5012183;28;20206;-63
2022/09/17 04:34:37;;;;;;;8.30;4.18;;;;;;;17.79;100.00;93593.47;5012113;28;20293;-62
2022/09/17 04:37:02;;;;;;;8.45;3.88;;;;;;;17.70;100.00;93565.59;5013149;28;20316;-61
2022/09/17 04:39:28;;;;;;;7.30;4.10;;;;;;;17.87;100.00;93595.84;5013247;28;20217;-61
2022/09/17 04:41:54;;;;;;;8.75;3.90;;;;;;;17.87;100.00;93598.41;5013151;28;20277;-61
2022/09/17 04:44:19;;;;;;;8.40;4.90;;;;;;;17.78;100.00;93622.72;5013166;28;20210;-61
2022/09/17 04:46:45;;;;;;;7.70;3.78;;;;;;;17.74;100.00;93618.19;5013074;28;20191;-61
2022/09/17 04:49:11;;;;;;;6.82;4.82;;;;;;;17.79;100.00;93634.59;5012962;28;20297;-63
2022/09/17 04:51:37;;;;;;;7.28;4.43;;;;;;;17.84;100.00;93639.13;5012993;28;20192;-62
2022/09/17 04:54:02;;;;;;;7.70;4.55;;;;;;;17.49;100.00;93639.31;5012905;28;20301;-60
2022/09/17 04:56:28;;;;;;;12.98;5.30;;;;;;;17.57;100.00;93644.28;5012713;28;20210;-60
2022/09/17 04:58:53;;;;;;;8.27;5.13;;;;;;;17.59;100.00;93652.56;5010749;28;20226;-61
2022/09/17 05:01:19;;;;;;;12.00;6.70;;;;;;;17.54;100.00;93662.66;5012252;28;20189;-62
2022/09/17 05:03:44;;;;;;;10.75;5.90;;;;;;;17.61;100.00;93655.75;5010795;28;20222;-61
2022/09/17 05:06:10;;;;;;;13.30;5.60;;;;;;;17.75;100.00;93642.91;5012414;28;20191;-61
2022/09/17 05:08:36;;;;;;;8.55;5.32;;;;;;;17.75;100.00;93640.34;5012168;28;20222;-62
2022/09/17 05:11:03;;;;;;;11.15;5.43;;;;;;;17.79;100.00;93644.09;5011526;28;20179;-61
2022/09/17 05:13:29;;;;;;;6.68;5.00;;;;;;;17.96;100.00;93640.13;5010285;28;20186;-61
2022/09/17 05:15:58;;;;;;;11.80;5.32;;;;;;;18.15;100.00;93642.69;5010791;28;20698;-62
2022/09/17 05:18:25;;;;;;;9.82;5.85;;;;;;;18.24;100.00;93640.69;5011886;28;20218;-62
2022/09/17 05:20:52;;;;;;;13.20;6.25;;;;;;;18.27;100.00;93635.94;5011803;28;20233;-62
2022/09/17 05:23:19;;;;;;;13.73;5.65;;;;;;;18.23;100.00;93621.91;5010296;28;20198;-62
2022/09/17 05:25:44;;;;;;;10.73;5.28;;;;;;;18.21;100.00;93611.00;5011796;28;20263;-61
2022/09/17 05:28:10;;;;;;;10.43;6.75;;;;;;;18.44;100.00;93606.22;5011790;28;20653;-62
2022/09/17 05:30:35;;;;;;;8.95;6.35;;;;;;;18.43;100.00;93596.94;5028138;22;20613;-62
2022/09/17 05:33:05;;;;;;;15.73;6.95;;;;;;;18.23;100.00;93592.78;5031378;28;20183;-61
2022/09/17 05:35:36;;;;;;;14.48;6.47;;;;;;;18.17;100.00;93607.25;5030265;28;20226;-62
2022/09/17 05:38:04;;;;;;;11.38;6.43;;;;;;;18.10;100.00;93613.41;5031113;28;20210;-62
2022/09/17 05:40:32;;;;;;;12.65;6.72;;;;;;;18.07;100.00;93616.38;5030855;28;20719;-61
2022/09/17 05:43:03;;;;;;;11.23;6.03;;;;;;;18.00;100.00;93626.66;5030842;28;20190;-61
2022/09/17 05:45:29;;;;;;;13.77;6.50;;;;;;;18.00;100.00;93618.94;5031144;28;20259;-62
2022/09/17 05:47:59;;;;;;;12.27;6.10;;;;;;;18.02;100.00;93619.53;5030800;28;20212;-62
2022/09/17 05:50:26;;;;;;;10.75;5.97;;;;;;;18.12;100.00;93612.22;5030578;28;20225;-62
2022/09/17 05:52:52;;;;;;;10.93;5.43;;;;;;;18.09;100.00;93624.69;5011473;28;20194;-61
2022/09/17 05:55:21;;;;;;;18.35;11.18;;;;;;;17.76;100.00;93635.00;5030222;28;20214;-63
2022/09/17 05:57:47;;;;;;;14.02;7.00;;;;;;;17.80;100.00;93631.03;5030818;28;20272;-63
2022/09/17 06:00:13;;;;;;;11.77;5.88;;;;;;;18.02;100.00;93624.69;5030924;28;20210;-62
2022/09/17 06:02:39;;;;;;;10.35;4.85;;;;;;;18.02;100.00;93622.13;5030878;28;20665;-61
2022/09/17 06:05:05;;;;;;;9.13;5.25;;;;;;;18.19;100.00;93617.34;5031118;28;20221;-61
2022/09/17 06:07:37;;;;;;;10.50;5.38;;;;;;;18.14;100.00;93615.38;5030740;28;20186;-62
2022/09/17 06:10:05;;;;;;;9.95;5.85;;;;;;;18.22;100.00;93632.41;5030616;28;20774;-63
2022/09/17 06:12:31;;;;;;;12.05;6.25;;;;;;;18.04;100.00;93621.94;5030875;28;20256;-61
2022/09/17 06:14:56;;;;;;;11.15;7.00;;;;;;;18.19;100.00;93623.28;5030453;28;20206;-61
2022/09/17 06:17:22;;;;;;;12.70;6.22;;;;;;;18.05;100.00;93624.31;5030418;28;20208;-61
2022/09/17 06:19:48;;;;;;;10.85;5.55;;;;;;;18.09;100.00;93634.97;5030402;28;20236;-61
2022/09/17 06:22:18;;;;;;;8.15;5.15;;;;;;;18.08;100.00;93641.88;5012673;28;20696;-62
2022/09/17 06:24:44;;;;;;;19.63;10.82;;;;;;;17.91;100.00;93666.44;5029904;28;20210;-63
2022/09/17 06:27:09;;;;;;;13.23;7.40;;;;;;;17.92;100.00;93678.31;5011129;28;20198;-62
2022/09/17 06:29:35;;;;;;;12.48;6.22;;;;;;;18.20;100.00;93702.03;5028529;28;20292;-60
2022/09/17 06:32:01;;;;;;;11.95;5.72;;;;;;;18.24;100.00;93700.66;5010956;28;20221;-61
2022/09/17 06:34:28;;;;;;;10.30;5.55;;;;;;;18.24;100.00;93703.22;5012357;28;20238;-62
2022/09/17 06:36:53;;;;;;;12.18;5.93;;;;;;;18.14;100.00;93700.25;5030117;28;20217;-65
2022/09/17 06:39:19;;;;;;;8.30;5.07;;;;;;;18.24;100.00;93710.94;5030602;28;20256;-62
2022/09/17 06:41:45;;;;;;;14.95;8.77;;;;;;;18.25;100.00;93714.31;5030209;28;20281;-62
2022/09/17 06:44:10;;;;;;;33.22;19.98;;;;;;;18.39;100.00;93731.31;5029755;28;20723;-61
2022/09/17 06:46:37;;;;;;;13.23;7.90;;;;;;;18.43;100.00;93712.75;5028747;28;20201;-61
2022/09/17 06:49:02;;;;;;;9.38;5.35;;;;;;;18.56;100.00;93696.50;5030032;28;20210;-61
2022/09/17 06:51:28;;;;;;;8.57;4.53;;;;;;;18.46;100.00;93680.69;5012085;28;20663;-61
2022/09/17 06:53:55;;;;;;;12.68;7.65;;;;;;;18.52;100.00;93673.94;5029839;28;20514;-62
2022/09/17 06:56:21;;;;;;;11.90;5.75;;;;;;;18.34;100.00;93665.00;5029777;28;20190;-63
2022/09/17 06:58:47;;;;;;;13.70;5.22;;;;;;;18.58;100.00;93686.00;5012005;28;20208;-63
2022/09/17 07:01:12;;;;;;;11.70;5.43;;;;;;;18.72;100.00;93682.38;5029973;28;20183;-62
2022/09/17 07:03:41;;;;;;;11.70;4.57;;;;;;;18.77;100.00;93677.41;5030140;28;20206;-62
2022/09/17 07:06:09;;;;;;;12.63;4.75;;;;;;;18.80;100.00;93664.13;5029919;28;20182;-64
2022/09/17 07:08:36;;;;;;;11.55;5.93;;;;;;;18.69;100.00;93644.94;5029662;28;20219;-61
2022/09/17 07:11:02;;;;;;;13.50;6.47;;;;;;;18.76;100.00;93632.06;5029488;28;20198;-62
2022/09/17 07:13:28;;;;;;;11.70;5.78;;;;;;;18.68;100.00;93622.00;5011873;28;20178;-61
2022/09/17 07:15:56;;;;;;;11.48;5.32;;;;;;;18.84;100.00;93616.38;5029837;28;20568;-63
2022/09/17 07:18:22;;;;;;;12.77;5.82;;;;;;;18.94;100.00;93603.84;5011878;28;20206;-62
2022/09/17 07:21:03;;;;;;;11.88;5.57;;;;;;;19.29;100.00;93607.59;5029528;28;20198;-61
2022/09/17 07:23:31;;;;;;;15.75;6.55;;;;;;;19.47;100.00;93602.56;5029807;28;20645;-61
2022/09/17 07:25:59;;;;;;;18.00;7.22;;;;;;;19.68;100.00;93601.41;5011818;28;20190;-62
2022/09/17 07:28:26;;;;;;;20.73;6.88;;;;;;;19.77;100.00;93606.09;5011993;28;20186;-61
2022/09/17 07:30:52;;;;;;;12.73;4.80;;;;;;;19.99;100.00;93620.19;5029535;28;20198;-62
2022/09/17 07:33:23;;;;;;;9.60;5.50;;;;;;;20.09;100.00;93615.34;5029598;28;20196;-61
2022/09/17 07:36:00;;;;;;;9.07;4.97;;;;;;;20.20;100.00;93618.25;5011901;28;20660;-63
2022/09/17 07:38:27;;;;;;;14.52;5.15;;;;;;;20.45;100.00;93632.69;5029664;28;20808;-61
2022/09/17 07:41:04;;;;;;;10.15;4.55;;;;;;;20.60;100.00;93650.41;5029826;28;20222;-61
2022/09/17 07:43:32;;;;;;;12.90;5.13;;;;;;;20.71;100.00;93662.59;5029472;28;20248;-61
2022/09/17 07:46:00;;;;;;;7.68;4.28;;;;;;;20.72;100.00;93633.19;5011848;28;20206;-62
2022/09/17 07:48:28;;;;;;;10.18;4.30;;;;;;;20.60;100.00;93619.41;5029526;28;20208;-62
2022/09/17 07:50:53;;;;;;;12.05;4.18;;;;;;;20.56;100.00;93631.19;5011741;28;20277;-63
2022/09/17 07:53:21;;;;;;;6.32;4.05;;;;;;;20.43;100.00;93624.34;5029444;28;20277;-63
2022/09/17 07:55:54;;;;;;;6.78;4.07;;;;;;;20.44;100.00;93620.75;5029664;28;20198;-62
2022/09/17 07:58:22;;;;;;;9.23;3.75;;;;;;;20.36;100.00;93612.53;5031326;28;20288;-62
2022/09/17 08:00:48;;;;;;;7.40;3.13;;;;;;;20.37;100.00;93603.75;5032693;28;20205;-63
2022/09/17 08:03:14;;;;;;;7.88;3.30;;;;;;;20.56;100.00;93631.19;5032879;28;20224;-62
2022/09/17 08:05:40;;;;;;;7.88;3.47;;;;;;;20.45;100.00;93604.28;5032981;28;20190;-63
2022/09/17 08:08:06;;;;;;;7.75;3.47;;;;;;;20.58;100.00;93624.00;5014657;28;20205;-62
2022/09/17 08:10:32;;;;;;;6.15;3.15;;;;;;;20.69;100.00;93636.97;5014643;28;20301;-62
2022/09/17 08:12:59;;;;;;;11.73;3.17;;;;;;;20.78;100.00;93617.63;5032541;28;20247;-62
2022/09/17 08:15:25;;;;;;;8.82;3.28;;;;;;;20.64;100.00;93602.47;5032363;28;20214;-63
2022/09/17 08:17:51;;;;;;;8.23;3.13;;;;;;;20.81;100.00;93657.72;5032448;28;20213;-62
2022/09/17 08:20:18;;;;;;;10.00;3.10;;;;;;;20.89;100.00;93670.34;5014713;28;20236;-62
2022/09/17 08:22:43;;;;;;;6.78;3.05;;;;;;;20.83;100.00;93633.25;5032107;28;20182;-62
2022/09/17 08:25:10;;;;;;;6.40;3.03;;;;;;;20.95;100.00;93612.63;5032511;28;20285;-61
2022/09/17 08:27:39;;;;;;;4.70;2.58;;;;;;;21.02;100.00;93628.88;5032349;28;20194;-63
2022/09/17 08:30:06;;;;;;;7.53;2.28;;;;;;;21.11;100.00;93622.38;5032106;28;20217;-62
2022/09/17 08:32:32;;;;;;;4.78;2.83;;;;;;;21.02;100.00;93612.56;5032099;28;20209;-63
2022/09/17 08:34:58;;;;;;;4.70;2.33;;;;;;;21.23;100.00;93646.47;5014239;28;20251;-61
2022/09/17 08:37:24;;;;;;;7.55;2.50;;;;;;;21.53;100.00;93673.13;5032434;28;20287;-64
2022/09/17 08:39:50;;;;;;;13.38;3.58;;;;;;;21.61;100.00;93636.59;5014526;28;20206;-65
2022/09/17 08:42:38;;;;;;;6.15;2.50;;;;;;;21.59;100.00;93658.53;5014489;28;20193;-62
2022/09/17 08:45:13;;;;;;;5.75;2.38;;;;;;;21.74;100.00;93703.69;5032287;28;20202;-63
2022/09/17 08:47:42;;;;;;;2.95;2.10;;;;;;;21.69;100.00;93708.72;5031338;28;20220;-63
2022/09/17 08:50:26;;;;;;;6.32;2.08;;;;;;;21.67;100.00;93661.56;5032122;28;20296;-62
2022/09/17 08:53:25;;;;;;;5.28;2.20;;;;;;;21.60;100.00;93644.56;5019834;22;20271;-62
2022/09/17 08:56:02;;;;;;;4.95;2.15;;;;;;;21.48;100.00;93649.72;4992630;28;20283;-63
2022/09/17 08:58:45;;;;;;;6.25;2.58;;;;;;;21.28;100.00;93627.72;4992743;28;20207;-63
2022/09/17 09:01:32;;;;;;;6.93;2.20;;;;;;;21.18;100.00;93640.41;4992654;28;20231;-63
2022/09/17 09:04:19;;;;;;;4.80;2.53;;;;;;;21.07;100.00;93602.38;4991184;28;20211;-64
2022/09/17 09:06:59;;;;;;;5.32;2.20;;;;;;;20.95;100.00;93591.19;4992524;28;20740;-63
2022/09/17 09:09:29;;;;;;;5.30;2.20;;;;;;;21.14;100.00;93621.97;4991449;28;20686;-62
2022/09/17 09:12:25;;;;;;;5.35;2.72;;;;;;;20.92;100.00;93611.28;4992588;28;20246;-63
2022/09/17 09:15:01;;;;;;;5.53;2.33;;;;;;;20.97;100.00;93599.50;4992459;28;20722;-61
2022/09/17 09:17:47;;;;;;;10.55;2.97;;;;;;;20.61;100.00;93533.16;4992850;28;20297;-65
2022/09/17 09:20:26;;;;;;;7.72;2.33;;;;;;;20.65;100.00;93575.63;4992536;28;20286;-61
2022/09/17 09:22:51;;;;;;;5.13;2.42;;;;;;;20.58;100.00;93574.94;4991651;28;20192;-61
2022/09/17 09:25:22;;;;;;;5.13;2.83;;;;;;;20.42;100.00;93565.19;4992068;28;20315;-62
2022/09/17 09:27:50;;;;;;;7.30;2.65;;;;;;;20.62;100.00;93581.25;4991932;28;20290;-63
2022/09/17 09:30:22;;;;;;;11.00;2.50;;;;;;;20.36;100.00;93605.56;4992031;28;20211;-62
2022/09/17 09:32:59;;;;;;;3.80;2.20;;;;;;;20.43;100.00;93605.47;4992128;28;20278;-62
2022/09/17 09:35:31;;;;;;;6.57;2.78;;;;;;;20.44;100.00;93587.19;4992024;28;20238;-63
2022/09/17 09:38:35;;;;;;;5.38;2.38;;;;;;;20.28;100.00;93592.16;4991833;28;20217;-62
2022/09/17 09:41:42;;;;;;;5.63;2.80;;;;;;;20.20;100.00;93616.44;4973609;28;20211;-62
2022/09/17 09:44:12;;;;;;;11.80;3.03;;;;;;;20.18;100.00;93610.66;4992245;28;20285;-63
2022/09/17 09:46:58;;;;;;;15.85;6.20;;;;;;;20.13;100.00;93602.00;4990661;28;20284;-62
2022/09/17 09:50:02;;;;;;;6.90;3.35;;;;;;;20.12;100.00;93613.34;4991888;28;20207;-63
2022/09/17 09:52:33;;;;;;;6.85;3.50;;;;;;;20.20;100.00;93620.84;4991763;28;20299;-62
2022/09/17 09:55:42;;;;;;;8.57;3.45;;;;;;;20.39;100.00;93641.28;4990378;28;20207;-62
2022/09/17 09:58:08;;;;;;;8.40;3.97;;;;;;;20.20;100.00;93633.72;4991678;28;20220;-63
2022/09/17 10:00:39;;;;;;;12.80;4.15;;;;;;;20.05;100.00;93644.34;4991564;28;20265;-63
2022/09/17 10:03:30;;;;;;;7.85;3.60;;;;;;;19.99;100.00;93646.00;4991695;28;20195;-62
2022/09/17 10:05:59;;;;;;;9.85;3.58;;;;;;;20.23;100.00;93634.09;4991566;28;20170;-63
2022/09/17 10:08:26;;;;;;;8.15;4.07;;;;;;;20.28;100.00;93617.97;4991378;28;20222;-63
2022/09/17 10:11:03;;;;;;;9.52;4.18;;;;;;;20.07;100.00;93583.00;4991328;28;20184;-62
2022/09/17 10:13:32;;;;;;;11.10;4.50;;;;;;;19.91;100.00;93545.66;4991449;28;20283;-63
2022/09/17 10:16:15;;;;;;;10.10;3.88;;;;;;;19.68;100.00;93555.78;4989902;28;20183;-63
2022/09/17 10:18:41;;;;;;;5.60;3.75;;;;;;;19.70;100.00;93553.78;4991234;28;20266;-62
2022/09/17 10:21:21;;;;;;;11.27;5.32;;;;;;;19.62;100.00;93559.19;4991100;28;20191;-64
2022/09/17 10:23:49;;;;;;;7.63;4.18;;;;;;;19.29;100.00;93538.78;4991099;28;20685;-62
2022/09/17 10:26:26;;;;;;;9.20;5.22;;;;;;;19.41;100.00;93523.50;4991129;28;20196;-64
2022/09/17 10:28:57;;;;;;;13.85;6.72;;;;;;;19.07;100.00;93508.44;4991026;28;20230;-63
2022/09/17 10:31:23;;;;;;;10.57;7.75;;;;;;;19.00;100.00;93511.09;4991168;28;20191;-62
2022/09/17 10:34:00;;;;;;;13.15;6.53;;;;;;;19.15;100.00;93510.75;4991025;28;20212;-62
2022/09/17 10:36:39;;;;;;;9.40;6.65;;;;;;;19.23;100.00;93525.97;4991099;28;20183;-63
2022/09/17 10:39:26;;;;;;;10.95;7.07;;;;;;;19.37;100.00;93524.91;4989486;28;20214;-62
2022/09/17 10:41:59;;;;;;;12.85;6.03;;;;;;;19.40;100.00;93519.31;4990978;28;20195;-62
2022/09/17 10:44:27;;;;;;;9.93;5.82;;;;;;;19.36;100.00;93504.47;4990615;28;20209;-62
2022/09/17 10:46:54;;;;;;;8.10;4.57;;;;;;;19.32;100.00;93480.09;4990650;28;20647;-62
2022/09/17 10:49:42;;;;;;;9.18;4.25;;;;;;;19.07;100.00;93477.53;4990789;28;20203;-62
2022/09/17 10:52:10;;;;;;;8.45;3.60;;;;;;;19.03;100.00;93477.16;4991122;28;20192;-61
2022/09/17 10:54:39;;;;;;;4.60;3.25;;;;;;;19.24;100.00;93468.28;4990829;28;20210;-63
2022/09/17 10:57:10;;;;;;;8.23;3.15;;;;;;;19.33;100.00;93453.34;4990825;28;20216;-63
2022/09/17 11:00:03;;;;;;;7.20;2.95;;;;;;;19.35;100.00;93438.50;4989908;28;20269;-63
2022/09/17 11:02:57;;;;;;;6.22;2.83;;;;;;;19.39;100.00;93414.66;4991402;28;20303;-63
2022/09/17 11:05:31;;;;;;;5.95;2.78;;;;;;;19.46;100.00;93423.09;4990622;28;20210;-62
2022/09/17 11:08:12;;;;;;;7.55;3.00;;;;;;;19.38;100.00;93423.38;4990597;28;20233;-61
2022/09/17 11:10:43;;;;;;;6.55;2.45;;;;;;;19.50;100.00;93462.91;4990472;28;20211;-62
2022/09/17 11:13:55;;;;;;;5.82;2.20;;;;;;;19.53;100.00;93480.56;4990702;28;20211;-62
2022/09/17 11:16:54;;;;;;;8.63;3.80;;;;;;;19.52;100.00;93486.69;4989571;28;20290;-62
2022/09/17 11:19:36;;;;;;;4.97;2.80;;;;;;;19.53;100.00;93488.28;4990723;28;20204;-62
2022/09/17 11:22:12;;;;;;;8.93;3.05;;;;;;;20.10;100.00;93487.06;4990784;28;20669;-61
2022/09/17 11:25:18;;;;;;;8.05;3.50;;;;;;;20.41;100.00;93468.06;4990221;28;20261;-61
2022/09/17 11:28:25;;;;;;;9.68;3.50;;;;;;;20.38;100.00;93484.03;4990170;28;20760;-62
2022/09/17 11:31:20;;;;;;;5.05;2.40;;;;;;;20.26;100.00;93504.59;4990236;28;20257;-62
2022/09/17 11:34:09;;;;;;;7.18;2.30;;;;;;;20.24;100.00;93532.41;4991573;28;20214;-62
2022/09/17 11:36:50;;;;;;;4.40;2.75;;;;;;;19.98;100.00;93519.75;4993568;28;20674;-63
2022/09/17 11:39:28;;;;;;;4.60;2.75;;;;;;;20.05;100.00;93510.97;4993515;28;20290;-64
2022/09/17 11:41:57;;;;;;;5.22;2.75;;;;;;;19.94;100.00;93516.81;4993831;28;20195;-63
2022/09/17 11:44:40;;;;;;;5.03;2.65;;;;;;;20.04;100.00;93519.69;4993524;28;20270;-63